createdAt,value
2022-08-26T00:01:35.969Z,99780.84
2022-08-26T00:07:37.659Z,99770.31
2022-08-26T00:13:40.229Z,99772.81
2022-08-26T00:19:49.593Z,99766.44
2022-08-26T00:25:54.540Z,99768.38
2022-08-26T00:31:58.561Z,99765.88
2022-08-26T00:38:01.794Z,99759.22
2022-08-26T00:44:03.845Z,99750.66
2022-08-26T00:50:10.871Z,99769.22
2022-08-26T00:56:29.486Z,99759.53
2022-08-26T01:02:31.388Z,99747.88
2022-08-26T01:08:33.500Z,99747.63
2022-08-26T01:14:36.766Z,99763.94
2022-08-26T01:20:53.587Z,99755.94
2022-08-26T01:27:07.068Z,99742.63
2022-08-26T01:33:15.009Z,99765.63
2022-08-26T01:39:18.108Z,99758.97
2022-08-26T01:45:27.166Z,99759.78
2022-08-26T01:51:30.320Z,99750.66
2022-08-26T01:57:32.835Z,99765.06
2022-08-26T02:03:38.719Z,99750.41
2022-08-26T02:09:44.092Z,99742.63
2022-08-26T02:15:46.819Z,99750.66
2022-08-26T02:21:51.935Z,99743.13
2022-08-26T02:27:54.709Z,99729.28
2022-08-26T02:34:11.779Z,99751.47
2022-08-26T02:40:16.160Z,99749.25
2022-08-26T02:46:21.550Z,99751.19
2022-08-26T02:52:29.800Z,99751.75
2022-08-26T02:58:31.833Z,99738.16
2022-08-26T03:04:33.938Z,99752.00
2022-08-26T03:10:35.608Z,99760.88
2022-08-26T03:16:38.147Z,99765.59
2022-08-26T03:22:40.290Z,99761.44
2022-08-26T03:29:02.157Z,99768.63
2022-08-26T03:35:04.793Z,99764.19
2022-08-26T03:41:09.139Z,99758.91
2022-08-26T03:47:11.146Z,99772.19
2022-08-26T03:53:13.421Z,99759.75
2022-08-26T03:59:15.135Z,99754.75
2022-08-26T04:05:19.632Z,99756.13
2022-08-26T04:11:23.455Z,99758.09
2022-08-26T04:17:26.305Z,99756.44
2022-08-26T04:23:27.929Z,99745.88
2022-08-26T04:29:30.091Z,99750.03
2022-08-26T04:35:32.410Z,99735.94
2022-08-26T04:41:34.235Z,99734.28
2022-08-26T04:47:38.052Z,99748.41
2022-08-26T04:53:39.793Z,99748.13
2022-08-26T04:59:42.486Z,99742.31
2022-08-26T05:05:46.401Z,99734.28
2022-08-26T05:11:52.027Z,99753.13
2022-08-26T05:17:54.074Z,99749.53
2022-08-26T05:23:57.049Z,99752.00
2022-08-26T05:29:58.822Z,99758.41
2022-08-26T05:36:07.898Z,99752.47
2022-08-26T05:42:11.252Z,99748.34
2022-08-26T05:48:16.542Z,99751.44
2022-08-26T05:54:21.758Z,99755.59
2022-08-26T06:00:24.292Z,99737.56
2022-08-26T06:06:32.918Z,99751.66
2022-08-26T06:12:34.680Z,99742.50
2022-08-26T06:18:39.659Z,99744.16
2022-08-26T06:24:59.874Z,99742.47
2022-08-26T06:31:03.231Z,99728.59
2022-08-26T06:37:06.684Z,99740.22
2022-08-26T06:43:09.574Z,99730.50
2022-08-26T06:49:12.482Z,99731.34
2022-08-26T06:55:14.322Z,99732.47
2022-08-26T07:01:23.398Z,99732.13
2022-08-26T07:07:25.108Z,99724.44
2022-08-26T07:13:30.762Z,99718.06
2022-08-26T07:19:32.700Z,99717.22
2022-08-26T07:25:37.882Z,99725.84
2022-08-26T07:31:42.368Z,99715.50
2022-08-26T07:37:44.659Z,99712.22
2022-08-26T07:43:46.352Z,99711.06
2022-08-26T07:49:48.285Z,99692.84
2022-08-26T07:55:54.490Z,99681.94
2022-08-26T08:02:02.178Z,99686.31
2022-08-26T08:08:26.278Z,99695.75
2022-08-26T08:14:29.838Z,99673.34
2022-08-26T08:20:33.301Z,99662.19
2022-08-26T08:26:35.707Z,99658.94
2022-08-26T08:32:43.814Z,99640.41
2022-08-26T08:38:45.534Z,99640.94
2022-08-26T08:44:52.082Z,99654.50
2022-08-26T08:51:04.343Z,99640.34
2022-08-26T08:57:17.485Z,99638.63
2022-08-26T09:03:56.915Z,99638.06
2022-08-26T09:10:22.853Z,99633.56
2022-08-26T09:17:04.947Z,99636.31
2022-08-26T09:23:06.934Z,99638.25
2022-08-26T09:29:31.437Z,99615.81
2022-08-26T09:35:36.095Z,99621.59
2022-08-26T09:41:37.818Z,99616.28
2022-08-26T09:47:54.400Z,99603.81
2022-08-26T09:53:59.648Z,99614.09
2022-08-26T10:00:02.308Z,99609.94
2022-08-26T10:06:26.712Z,99601.03
2022-08-26T10:12:34.260Z,99594.13
2022-08-26T10:18:42.263Z,99603.00
2022-08-26T10:24:53.219Z,99582.78
2022-08-26T10:31:21.479Z,99587.78
2022-08-26T10:37:43.491Z,99568.72
2022-08-26T10:43:52.346Z,99590.84
2022-08-26T10:49:59.989Z,99573.03
2022-08-26T10:56:27.555Z,99564.97
2022-08-26T11:02:48.301Z,99568.06
2022-08-26T11:08:59.598Z,99558.66
2022-08-26T11:15:24.649Z,99544.44
2022-08-26T11:21:51.919Z,99546.03
2022-08-26T11:28:00.886Z,99551.91
2022-08-26T11:34:08.699Z,99534.16
2022-08-26T11:40:20.761Z,99535.31
2022-08-26T11:46:28.748Z,99505.91
2022-08-26T11:52:30.490Z,99512.28
2022-08-26T11:58:35.513Z,99515.31
2022-08-26T12:04:41.671Z,99512.78
2022-08-26T12:10:43.507Z,99500.31
2022-08-26T12:16:45.806Z,99486.16
2022-08-26T12:22:48.124Z,99491.41
2022-08-26T12:29:02.395Z,99479.78
2022-08-26T12:35:22.068Z,99476.16
2022-08-26T12:41:53.763Z,99471.97
2022-08-26T12:48:02.676Z,99461.72
2022-08-26T12:54:06.898Z,99465.31
2022-08-26T13:00:29.587Z,99469.69
2022-08-26T13:06:31.647Z,99457.22
2022-08-26T13:12:37.467Z,99453.34
2022-08-26T13:18:39.515Z,99444.75
2022-08-26T13:24:43.798Z,99446.72
2022-08-26T13:30:48.259Z,99454.16
2022-08-26T13:36:52.056Z,99450.25
2022-08-26T13:42:53.753Z,99444.69
2022-08-26T13:48:56.845Z,99451.94
2022-08-26T13:55:00.468Z,99454.09
2022-08-26T14:01:02.408Z,99436.38
2022-08-26T14:07:04.543Z,99422.88
2022-08-26T14:13:07.623Z,99414.81
2022-08-26T14:19:09.631Z,99424.06
2022-08-26T14:25:13.555Z,99429.28
2022-08-26T14:31:15.479Z,99414.16
2022-08-26T14:37:18.077Z,99412.94
2022-08-26T14:43:19.819Z,99410.13
2022-08-26T14:49:23.486Z,99421.72
2022-08-26T14:55:26.268Z,99427.00
2022-08-26T15:01:30.958Z,99411.75
2022-08-26T15:07:33.139Z,99409.63
2022-08-26T15:13:35.758Z,99426.78
2022-08-26T15:19:38.776Z,99422.63
2022-08-26T15:25:43.624Z,99404.69
2022-08-26T15:31:45.847Z,99410.47
2022-08-26T15:37:47.626Z,99424.56
2022-08-26T15:43:49.820Z,99416.88
2022-08-26T15:49:51.500Z,99429.28
2022-08-26T15:55:55.307Z,99428.47
2022-08-26T16:02:00.538Z,99431.03
2022-08-26T16:08:03.629Z,99429.13
2022-08-26T16:14:05.821Z,99426.34
2022-08-26T16:20:08.419Z,99423.09
2022-08-26T16:26:15.844Z,99412.88
2022-08-26T16:32:17.707Z,99418.19
2022-08-26T16:38:19.465Z,99417.63
2022-08-26T16:44:22.297Z,99404.97
2022-08-26T16:50:24.191Z,99413.81
2022-08-26T16:56:33.449Z,99401.22
2022-08-26T17:02:36.059Z,99411.59
2022-08-26T17:08:39.466Z,99404.97
2022-08-26T17:14:41.384Z,99417.09
2022-08-26T17:20:45.116Z,99419.56
2022-08-26T17:26:50.033Z,99432.72
2022-08-26T17:32:55.326Z,99444.47
2022-08-26T17:38:59.830Z,99453.84
2022-08-26T17:45:01.569Z,99429.59
2022-08-26T17:51:13.655Z,99449.66
2022-08-26T17:57:15.470Z,99460.47
2022-08-26T18:03:19.237Z,99462.66
2022-08-26T18:09:21.245Z,99451.06
2022-08-26T18:15:23.214Z,99466.53
2022-08-26T18:21:27.311Z,99482.50
2022-08-26T18:27:29.019Z,99462.53
2022-08-26T18:33:31.157Z,99464.78
2022-08-26T18:39:33.010Z,99474.22
2022-08-26T18:45:34.795Z,99481.69
2022-08-26T18:51:38.252Z,99465.97
2022-08-26T18:57:40.141Z,99482.84
2022-08-26T19:03:42.696Z,99488.63
2022-08-26T19:09:44.408Z,99486.22
2022-08-26T19:15:46.969Z,99487.38
2022-08-26T19:21:48.834Z,99487.13
2022-08-26T19:27:50.599Z,99479.66
2022-08-26T19:33:52.740Z,99492.69
2022-08-26T19:39:54.484Z,99475.53
2022-08-26T19:45:56.404Z,99477.69
2022-08-26T19:51:58.848Z,99475.16
2022-08-26T19:58:00.733Z,99482.06
2022-08-26T20:04:02.936Z,99488.91
2022-08-26T20:10:07.058Z,99487.81
2022-08-26T20:16:11.613Z,99493.38
2022-08-26T20:22:13.923Z,99503.41
2022-08-26T20:28:15.624Z,99506.75
2022-08-26T20:34:18.870Z,99483.81
2022-08-26T20:40:21.423Z,99497.66
2022-08-26T20:46:25.419Z,99496.59
2022-08-26T20:52:27.971Z,99510.69
2022-08-26T20:58:30.059Z,99504.09
2022-08-26T21:04:31.940Z,99504.66
2022-08-26T21:10:33.748Z,99511.31
2022-08-26T21:16:37.224Z,99507.97
2022-08-26T21:22:39.083Z,99502.44
2022-08-26T21:28:43.741Z,99500.50
2022-08-26T21:34:45.460Z,99499.69
2022-08-26T21:41:00.814Z,99501.34
2022-08-26T21:47:03.510Z,99507.72
2022-08-26T21:53:05.783Z,99506.88
2022-08-26T21:59:08.387Z,99511.63
2022-08-26T22:05:10.400Z,99515.22
2022-08-26T22:11:12.280Z,99513.00
2022-08-26T22:17:14.080Z,99511.88
2022-08-26T22:23:15.782Z,99511.66
2022-08-26T22:29:18.793Z,99486.78
2022-08-26T22:35:28.887Z,99502.19
2022-08-26T22:41:33.442Z,99511.91
2022-08-26T22:47:35.911Z,99493.66
2022-08-26T22:53:39.319Z,99498.63
2022-08-26T22:59:44.111Z,99492.53
2022-08-26T23:05:48.064Z,99492.50
2022-08-26T23:11:55.002Z,99476.78
2022-08-26T23:17:58.531Z,99487.56
2022-08-26T23:24:01.157Z,99488.38
2022-08-26T23:30:08.407Z,99484.81
2022-08-26T23:36:13.593Z,99494.53
2022-08-26T23:42:18.949Z,99508.63
2022-08-26T23:48:21.735Z,99500.31
2022-08-26T23:54:24.131Z,99493.66
